createdAt,value
2024-04-03T00:00:08.804Z,10.46
2024-04-03T00:02:57.332Z,10.45
2024-04-03T00:05:25.419Z,10.44
2024-04-03T00:07:53.649Z,10.43
2024-04-03T00:10:21.882Z,10.43
2024-04-03T00:12:50.134Z,10.40
2024-04-03T00:15:18.311Z,10.33
2024-04-03T00:17:46.425Z,10.30
2024-04-03T00:20:14.405Z,10.30
2024-04-03T00:22:42.331Z,10.33
2024-04-03T00:25:10.637Z,10.34
2024-04-03T00:27:39.140Z,10.34
2024-04-03T00:30:09.088Z,10.35
2024-04-03T00:32:37.217Z,10.38
2024-04-03T00:35:06.724Z,10.41
2024-04-03T00:37:36.838Z,10.41
2024-04-03T00:40:05.796Z,10.43
2024-04-03T00:42:33.849Z,10.46
2024-04-03T00:45:02.076Z,10.47
2024-04-03T00:47:30.628Z,10.50
2024-04-03T00:49:59.718Z,10.52
2024-04-03T00:52:27.792Z,10.53
2024-04-03T00:54:56.218Z,10.55
2024-04-03T00:57:24.576Z,10.57
2024-04-03T00:59:53.261Z,10.60
2024-04-03T01:02:21.543Z,10.59
2024-04-03T01:04:49.973Z,10.58
2024-04-03T01:07:18.274Z,10.59
2024-04-03T01:09:46.689Z,10.58
2024-04-03T01:12:14.966Z,10.57
2024-04-03T01:14:43.210Z,10.57
2024-04-03T01:17:11.432Z,10.55
2024-04-03T01:19:39.608Z,10.52
2024-04-03T01:22:07.552Z,10.51
2024-04-03T01:24:36.085Z,10.50
2024-04-03T01:27:04.624Z,10.50
2024-04-03T01:29:34.659Z,10.50
2024-04-03T01:32:03.617Z,10.47
2024-04-03T01:34:32.321Z,10.42
2024-04-03T01:37:00.335Z,10.37
2024-04-03T01:39:30.178Z,10.35
2024-04-03T01:41:58.427Z,10.31
2024-04-03T01:44:26.837Z,10.29
2024-04-03T01:46:55.036Z,10.29
2024-04-03T01:49:23.168Z,10.31
2024-04-03T01:51:51.397Z,10.32
2024-04-03T01:54:19.345Z,10.33
2024-04-03T01:56:47.317Z,10.34
2024-04-03T01:59:43.653Z,10.34
2024-04-03T02:02:12.104Z,10.30
2024-04-03T02:04:40.128Z,10.27
2024-04-03T02:07:08.331Z,10.23
2024-04-03T02:09:36.884Z,10.18
2024-04-03T02:12:06.350Z,10.14
2024-04-03T02:14:34.549Z,10.12
2024-04-03T02:17:03.379Z,10.10
2024-04-03T02:19:31.811Z,10.08
2024-04-03T02:21:59.822Z,10.06
2024-04-03T02:24:27.907Z,9.99
2024-04-03T02:26:56.309Z,9.95
2024-04-03T02:29:24.829Z,9.91
2024-04-03T02:31:53.151Z,9.89
2024-04-03T02:34:21.387Z,9.87
2024-04-03T02:36:49.864Z,9.85
2024-04-03T02:39:17.997Z,9.83
2024-04-03T02:41:45.926Z,9.88
2024-04-03T02:44:14.175Z,9.89
2024-04-03T02:46:42.348Z,9.92
2024-04-03T02:49:11.658Z,9.95
2024-04-03T02:51:39.682Z,9.97
2024-04-03T02:54:07.698Z,10.02
2024-04-03T02:56:35.737Z,10.05
2024-04-03T02:59:03.642Z,10.05
2024-04-03T03:01:32.025Z,10.07
2024-04-03T03:04:01.723Z,10.09
2024-04-03T03:06:29.688Z,10.10
2024-04-03T03:08:57.808Z,10.09
2024-04-03T03:11:25.903Z,10.13
2024-04-03T03:13:54.250Z,10.13
2024-04-03T03:16:23.516Z,10.09
2024-04-03T03:18:51.472Z,10.03
2024-04-03T03:21:19.740Z,9.98
2024-04-03T03:23:47.791Z,9.95
2024-04-03T03:26:16.016Z,9.95
2024-04-03T03:28:44.300Z,9.94
2024-04-03T03:31:14.269Z,9.91
2024-04-03T03:33:42.571Z,9.90
2024-04-03T03:36:10.647Z,9.89
2024-04-03T03:38:39.337Z,9.87
2024-04-03T03:41:07.551Z,9.86
2024-04-03T03:43:35.790Z,9.84
2024-04-03T03:46:04.897Z,9.82
2024-04-03T03:48:51.795Z,9.80
2024-04-03T03:51:38.569Z,9.80
2024-04-03T03:54:07.895Z,9.80
2024-04-03T03:56:42.791Z,9.80
2024-04-03T03:59:12.768Z,9.80
2024-04-03T04:01:40.802Z,9.81
2024-04-03T04:04:09.355Z,9.85
2024-04-03T04:06:37.592Z,9.90
2024-04-03T04:09:06.027Z,9.95
2024-04-03T04:11:34.148Z,9.99
2024-04-03T04:14:02.390Z,10.03
2024-04-03T04:16:30.722Z,10.03
2024-04-03T04:18:58.955Z,10.05
2024-04-03T04:21:29.197Z,10.04
2024-04-03T04:23:57.194Z,10.02
2024-04-03T04:26:25.162Z,10.01
2024-04-03T04:28:53.095Z,10.00
2024-04-03T04:31:21.410Z,10.00
2024-04-03T04:33:49.693Z,10.02
2024-04-03T04:36:17.953Z,10.00
2024-04-03T04:38:46.618Z,9.98
2024-04-03T04:41:14.720Z,9.96
2024-04-03T04:43:42.675Z,10.00
2024-04-03T04:46:10.954Z,10.05
2024-04-03T04:48:38.952Z,10.12
2024-04-03T04:51:07.304Z,10.18
2024-04-03T04:53:35.500Z,10.27
2024-04-03T04:56:05.574Z,10.35
2024-04-03T04:58:33.763Z,10.43
2024-04-03T05:01:02.000Z,10.53
2024-04-03T05:03:30.374Z,10.62
2024-04-03T05:05:59.065Z,10.71
2024-04-03T05:08:27.715Z,10.80
2024-04-03T05:10:58.210Z,10.88
2024-04-03T05:13:33.840Z,10.97
2024-04-03T05:16:09.628Z,11.08
2024-04-03T05:18:38.020Z,11.19
2024-04-03T05:21:06.458Z,11.29
2024-04-03T05:23:34.833Z,11.39
2024-04-03T05:26:06.393Z,11.52
2024-04-03T05:28:36.401Z,11.68
2024-04-03T05:31:10.294Z,11.87
2024-04-03T05:33:39.944Z,12.06
2024-04-03T05:36:09.677Z,12.24
2024-04-03T05:38:42.969Z,12.41
2024-04-03T05:41:13.520Z,12.59
2024-04-03T05:43:42.180Z,12.71
2024-04-03T05:46:10.397Z,12.81
2024-04-03T05:48:38.786Z,12.85
2024-04-03T05:51:08.859Z,12.96
2024-04-03T05:53:37.353Z,13.01
2024-04-03T05:56:06.230Z,13.07
2024-04-03T05:58:35.288Z,13.14
2024-04-03T06:01:04.787Z,13.21
2024-04-03T06:03:33.491Z,13.26
2024-04-03T06:06:01.954Z,13.33
2024-04-03T06:08:30.287Z,13.39
2024-04-03T06:10:58.561Z,13.43
2024-04-03T06:13:26.669Z,13.48
2024-04-03T06:15:55.772Z,13.53
2024-04-03T06:18:24.683Z,13.58
2024-04-03T06:20:53.115Z,13.66
2024-04-03T06:23:23.651Z,13.75
2024-04-03T06:25:52.292Z,13.80
2024-04-03T06:28:20.244Z,13.90
2024-04-03T06:30:48.430Z,13.99
2024-04-03T06:33:17.856Z,14.06
2024-04-03T06:35:46.094Z,14.16
2024-04-03T06:38:14.838Z,14.23
2024-04-03T06:40:44.028Z,14.29
2024-04-03T06:43:12.086Z,14.32
2024-04-03T06:45:40.326Z,14.37
2024-04-03T06:48:08.634Z,14.44
2024-04-03T06:50:36.631Z,14.49
2024-04-03T06:53:05.031Z,14.57
2024-04-03T06:55:32.988Z,14.67
2024-04-03T06:58:02.694Z,14.79
2024-04-03T07:00:32.110Z,14.91
2024-04-03T07:03:00.514Z,14.93
2024-04-03T07:05:29.065Z,14.95
2024-04-03T07:07:57.340Z,14.96
2024-04-03T07:10:25.747Z,14.98
2024-04-03T07:12:53.856Z,15.02
2024-04-03T07:15:22.116Z,15.04
2024-04-03T07:17:50.835Z,15.09
2024-04-03T07:20:19.199Z,15.12
2024-04-03T07:22:47.516Z,15.13
2024-04-03T07:25:16.866Z,15.11
2024-04-03T07:27:50.342Z,15.18
2024-04-03T07:30:20.027Z,15.34
2024-04-03T07:32:48.755Z,15.53
2024-04-03T07:35:16.901Z,15.65
2024-04-03T07:37:47.987Z,15.73
2024-04-03T07:40:16.610Z,15.80
2024-04-03T07:42:45.812Z,15.86
2024-04-03T07:45:13.792Z,15.92
2024-04-03T07:47:42.384Z,16.03
2024-04-03T07:50:10.504Z,16.13
2024-04-03T07:52:41.724Z,16.10
2024-04-03T07:55:11.640Z,16.13
2024-04-03T07:57:40.476Z,16.23
2024-04-03T08:00:10.395Z,16.26
2024-04-03T08:02:43.520Z,16.22
2024-04-03T08:05:13.540Z,16.17
2024-04-03T08:07:45.774Z,16.16
2024-04-03T08:10:14.232Z,16.19
2024-04-03T08:12:42.769Z,16.28
2024-04-03T08:15:13.155Z,16.33
2024-04-03T08:17:41.598Z,16.36
2024-04-03T08:20:11.896Z,16.40
2024-04-03T08:22:40.242Z,16.41
2024-04-03T08:25:08.458Z,16.41
2024-04-03T08:27:36.750Z,16.34
2024-04-03T08:30:07.100Z,16.33
2024-04-03T08:32:35.976Z,16.37
2024-04-03T08:35:05.197Z,16.39
2024-04-03T08:37:38.298Z,16.42
2024-04-03T08:40:16.130Z,16.52
2024-04-03T08:42:44.291Z,16.66
2024-04-03T08:45:16.138Z,16.78
2024-04-03T08:47:46.160Z,16.90
2024-04-03T08:50:14.180Z,17.01
2024-04-03T08:52:43.448Z,17.08
2024-04-03T08:55:15.932Z,17.21
2024-04-03T08:57:44.977Z,17.33
2024-04-03T09:00:14.898Z,17.53
2024-04-03T09:02:43.029Z,17.79
2024-04-03T09:05:11.908Z,17.98
2024-04-03T09:07:40.331Z,18.15
2024-04-03T09:10:09.189Z,18.30
2024-04-03T09:12:37.256Z,18.50
2024-04-03T09:15:11.195Z,18.75
2024-04-03T09:17:39.333Z,19.06
2024-04-03T09:20:08.443Z,19.25
2024-04-03T09:22:37.688Z,19.51
2024-04-03T09:25:06.179Z,19.74
2024-04-03T09:27:34.098Z,20.09
2024-04-03T09:30:02.823Z,20.58
2024-04-03T09:32:30.794Z,21.11
2024-04-03T09:35:00.122Z,21.48
2024-04-03T09:37:28.191Z,21.78
2024-04-03T09:39:56.299Z,22.19
2024-04-03T09:42:26.053Z,22.70
2024-04-03T09:44:59.793Z,23.03
2024-04-03T09:47:30.350Z,23.19
2024-04-03T09:50:01.914Z,23.50
2024-04-03T09:52:31.619Z,23.16
2024-04-03T09:55:00.177Z,23.47
2024-04-03T09:57:28.692Z,23.83
2024-04-03T09:59:58.683Z,23.79
2024-04-03T10:02:26.819Z,24.48
2024-04-03T10:04:59.110Z,25.18
2024-04-03T10:07:31.218Z,26.10
2024-04-03T10:09:59.515Z,26.52
2024-04-03T10:12:29.569Z,27.08
2024-04-03T10:14:58.843Z,27.43
2024-04-03T10:17:38.474Z,27.55
2024-04-03T10:20:07.934Z,28.12
2024-04-03T10:22:36.177Z,28.50
2024-04-03T10:25:07.423Z,28.09
2024-04-03T10:27:35.524Z,27.33
2024-04-03T10:30:08.154Z,26.99
2024-04-03T10:32:36.376Z,26.89
2024-04-03T10:35:05.945Z,27.34
2024-04-03T10:37:35.226Z,28.06
2024-04-03T10:40:04.151Z,28.68
2024-04-03T10:42:32.178Z,29.43
2024-04-03T10:45:02.272Z,29.73
2024-04-03T10:47:30.573Z,29.58
2024-04-03T10:49:59.070Z,29.37
2024-04-03T10:52:27.299Z,29.59
2024-04-03T10:54:56.595Z,29.92
2024-04-03T10:57:24.613Z,30.09
2024-04-03T10:59:56.870Z,30.06
2024-04-03T11:02:24.882Z,29.98
2024-04-03T11:04:52.870Z,30.21
2024-04-03T11:07:21.027Z,30.88
2024-04-03T11:09:49.937Z,30.73
2024-04-03T11:12:19.949Z,30.53
2024-04-03T11:14:57.026Z,29.80
2024-04-03T11:17:24.991Z,29.67
2024-04-03T11:19:53.598Z,29.09
2024-04-03T11:22:21.799Z,29.26
2024-04-03T11:24:50.129Z,30.01
2024-04-03T11:27:18.181Z,29.95
2024-04-03T11:29:46.223Z,30.15
2024-04-03T11:32:17.423Z,30.25
2024-04-03T11:34:45.471Z,30.14
2024-04-03T11:37:16.245Z,28.94
2024-04-03T11:39:44.519Z,28.65
2024-04-03T11:42:13.326Z,28.75
2024-04-03T11:44:41.705Z,28.75
2024-04-03T11:47:10.014Z,28.36
2024-04-03T11:49:38.275Z,27.54
2024-04-03T11:52:08.150Z,26.88
2024-04-03T11:54:36.116Z,25.73
2024-04-03T11:57:04.351Z,24.92
2024-04-03T11:59:32.754Z,24.82
2024-04-03T12:02:01.015Z,24.46
2024-04-03T12:04:29.401Z,23.74
2024-04-03T12:06:57.683Z,23.27
2024-04-03T12:09:26.387Z,22.97
2024-04-03T12:11:54.957Z,23.36
2024-04-03T12:14:23.258Z,23.58
2024-04-03T12:16:56.265Z,24.35
2024-04-03T12:19:27.896Z,24.97
2024-04-03T12:21:56.910Z,24.74
2024-04-03T12:24:25.581Z,24.47
2024-04-03T12:26:53.677Z,25.03
2024-04-03T12:29:21.772Z,26.04
2024-04-03T12:31:52.882Z,26.73
2024-04-03T12:34:21.548Z,27.23
2024-04-03T12:37:05.318Z,26.12
2024-04-03T12:39:39.548Z,25.18
2024-04-03T12:42:07.587Z,25.52
2024-04-03T12:44:35.576Z,26.55
2024-04-03T12:47:08.195Z,27.68
2024-04-03T12:49:36.675Z,28.64
2024-04-03T12:52:05.686Z,28.36
2024-04-03T12:54:33.765Z,27.42
2024-04-03T12:57:01.953Z,27.74
2024-04-03T12:59:30.161Z,28.54
2024-04-03T13:01:58.205Z,28.98
2024-04-03T13:04:26.303Z,29.18
2024-04-03T13:06:54.556Z,29.62
2024-04-03T13:09:22.621Z,29.05
2024-04-03T13:11:50.874Z,28.73
2024-04-03T13:14:19.283Z,29.12
2024-04-03T13:16:47.454Z,29.96
2024-04-03T13:19:15.635Z,30.44
2024-04-03T13:21:44.217Z,30.08
2024-04-03T13:24:12.165Z,28.96
2024-04-03T13:26:41.469Z,27.93
2024-04-03T13:29:10.405Z,28.40
2024-04-03T13:31:38.617Z,29.78
2024-04-03T13:34:07.345Z,30.78
2024-04-03T13:36:35.389Z,30.70
2024-04-03T13:39:08.306Z,30.65
2024-04-03T13:41:36.315Z,30.88
2024-04-03T13:44:05.346Z,31.04
2024-04-03T13:46:34.866Z,31.59
2024-04-03T13:49:04.429Z,32.11
2024-04-03T13:51:32.663Z,32.79
2024-04-03T13:54:02.474Z,32.92
2024-04-03T13:56:30.737Z,33.52
2024-04-03T13:58:58.721Z,34.41
2024-04-03T14:01:26.861Z,34.94
2024-04-03T14:03:54.897Z,35.02
2024-04-03T14:06:23.035Z,34.49
2024-04-03T14:08:53.859Z,33.67
2024-04-03T14:11:23.528Z,33.37
2024-04-03T14:13:53.001Z,33.79
2024-04-03T14:16:20.991Z,34.72
2024-04-03T14:18:49.361Z,35.16
2024-04-03T14:21:17.822Z,35.53
2024-04-03T14:23:46.130Z,36.07
2024-04-03T14:26:14.293Z,35.76
2024-04-03T14:28:43.124Z,35.35
2024-04-03T14:31:11.283Z,34.86
2024-04-03T14:33:39.378Z,35.04
2024-04-03T14:36:07.912Z,35.07
2024-04-03T14:38:36.162Z,35.18
2024-04-03T14:41:04.923Z,35.60
2024-04-03T14:43:33.410Z,36.22
2024-04-03T14:46:02.209Z,36.78
2024-04-03T14:48:30.987Z,36.68
2024-04-03T14:50:59.503Z,35.91
2024-04-03T14:53:28.170Z,34.87
2024-04-03T14:55:57.018Z,33.65
2024-04-03T14:58:25.181Z,32.58
2024-04-03T15:00:53.330Z,32.59
2024-04-03T15:03:21.540Z,32.89
2024-04-03T15:05:50.290Z,32.90
2024-04-03T15:08:21.941Z,33.16
2024-04-03T15:10:52.961Z,33.10
2024-04-03T15:13:21.063Z,33.47
2024-04-03T15:15:49.590Z,32.89
2024-04-03T15:18:17.915Z,32.06
2024-04-03T15:20:46.922Z,30.94
2024-04-03T15:23:15.222Z,30.17
2024-04-03T15:25:44.087Z,29.80
2024-04-03T15:28:12.184Z,29.20
2024-04-03T15:30:40.760Z,29.13
2024-04-03T15:33:08.854Z,28.95
2024-04-03T15:35:38.574Z,27.99
2024-04-03T15:38:06.546Z,26.74
2024-04-03T15:40:35.674Z,25.62
2024-04-03T15:43:04.517Z,24.57
2024-04-03T15:45:32.565Z,23.80
2024-04-03T15:48:02.265Z,23.22
2024-04-03T15:50:30.571Z,23.19
2024-04-03T15:53:04.238Z,23.07
2024-04-03T15:55:32.710Z,23.04
2024-04-03T15:58:00.687Z,22.64
2024-04-03T16:00:29.931Z,22.08
2024-04-03T16:02:58.186Z,21.66
2024-04-03T16:05:26.232Z,21.35
2024-04-03T16:07:54.489Z,21.06
2024-04-03T16:10:22.734Z,20.75
2024-04-03T16:12:51.012Z,20.52
2024-04-03T16:15:19.906Z,20.27
2024-04-03T16:17:48.983Z,20.05
2024-04-03T16:20:18.506Z,19.87
2024-04-03T16:22:46.885Z,19.68
2024-04-03T16:25:15.098Z,19.50
2024-04-03T16:27:45.484Z,19.32
2024-04-03T16:30:13.893Z,19.15
2024-04-03T16:32:41.919Z,18.98
2024-04-03T16:35:12.598Z,18.87
2024-04-03T16:37:40.830Z,18.78
2024-04-03T16:40:09.755Z,18.64
2024-04-03T16:42:38.938Z,18.53
2024-04-03T16:45:07.953Z,18.45
2024-04-03T16:47:35.968Z,18.46
2024-04-03T16:50:04.537Z,18.49
2024-04-03T16:52:32.616Z,18.50
2024-04-03T16:55:00.999Z,18.56
2024-04-03T16:57:29.106Z,18.61
2024-04-03T16:59:57.321Z,18.63
2024-04-03T17:02:25.376Z,18.62
2024-04-03T17:04:53.523Z,18.57
2024-04-03T17:07:24.462Z,18.48
2024-04-03T17:09:52.546Z,18.40
2024-04-03T17:12:20.782Z,18.32
2024-04-03T17:14:49.200Z,18.22
2024-04-03T17:17:17.819Z,18.14
2024-04-03T17:19:46.167Z,18.03
2024-04-03T17:22:14.684Z,17.93
2024-04-03T17:24:43.094Z,17.84
2024-04-03T17:27:11.596Z,17.71
2024-04-03T17:29:42.654Z,17.55
2024-04-03T17:32:10.965Z,17.45
2024-04-03T17:34:40.603Z,17.33
2024-04-03T17:37:08.928Z,17.23
2024-04-03T17:39:37.594Z,17.12
2024-04-03T17:42:06.250Z,16.96
2024-04-03T17:44:34.236Z,16.84
2024-04-03T17:47:10.836Z,16.72
2024-04-03T17:49:40.040Z,16.59
2024-04-03T17:52:08.833Z,16.47
2024-04-03T17:54:36.920Z,16.36
2024-04-03T17:57:06.205Z,16.22
2024-04-03T17:59:34.244Z,16.12
2024-04-03T18:02:02.202Z,15.99
2024-04-03T18:04:30.293Z,15.86
2024-04-03T18:06:58.530Z,15.72
2024-04-03T18:09:27.074Z,15.61
2024-04-03T18:11:55.547Z,15.54
2024-04-03T18:14:23.501Z,15.49
2024-04-03T18:16:52.120Z,15.45
2024-04-03T18:19:20.959Z,15.40
2024-04-03T18:21:49.158Z,15.34
2024-04-03T18:24:17.686Z,15.28
2024-04-03T18:26:46.689Z,15.23
2024-04-03T18:29:14.774Z,15.18
2024-04-03T18:31:42.827Z,15.13
2024-04-03T18:34:11.013Z,15.07
2024-04-03T18:36:39.305Z,14.99
2024-04-03T18:39:08.601Z,14.89
2024-04-03T18:41:36.822Z,14.74
2024-04-03T18:44:05.355Z,14.57
2024-04-03T18:46:33.297Z,14.48
2024-04-03T18:49:02.349Z,14.37
2024-04-03T18:51:30.520Z,14.31
2024-04-03T18:53:58.753Z,14.25
2024-04-03T18:56:27.133Z,14.15
2024-04-03T18:58:55.059Z,13.97
2024-04-03T19:01:23.370Z,13.85
2024-04-03T19:03:51.309Z,13.78
2024-04-03T19:06:19.508Z,13.73
2024-04-03T19:08:47.644Z,13.67
2024-04-03T19:11:16.374Z,13.58
2024-04-03T19:13:44.545Z,13.52
2024-04-03T19:16:13.668Z,13.48
2024-04-03T19:18:45.771Z,13.43
2024-04-03T19:21:15.521Z,13.36
2024-04-03T19:23:44.033Z,13.30
2024-04-03T19:26:11.967Z,13.25
2024-04-03T19:28:42.003Z,13.18
2024-04-03T19:31:10.924Z,13.13
2024-04-03T19:33:39.033Z,13.09
2024-04-03T19:36:07.995Z,13.03
2024-04-03T19:38:39.916Z,12.94
2024-04-03T19:41:08.048Z,12.81
2024-04-03T19:43:36.044Z,12.72
2024-04-03T19:46:04.610Z,12.66
2024-04-03T19:48:32.703Z,12.60
2024-04-03T19:51:01.012Z,12.54
2024-04-03T19:53:36.021Z,12.49
2024-04-03T19:56:04.649Z,12.44
2024-04-03T19:58:32.722Z,12.38
2024-04-03T20:01:05.763Z,12.31
2024-04-03T20:03:33.824Z,12.24
2024-04-03T20:06:02.478Z,12.20
2024-04-03T20:08:30.780Z,12.16
2024-04-03T20:10:59.031Z,12.12
2024-04-03T20:13:28.492Z,12.04
2024-04-03T20:15:56.727Z,11.92
2024-04-03T20:18:25.061Z,11.87
2024-04-03T20:20:53.018Z,11.81
2024-04-03T20:23:21.018Z,11.78
2024-04-03T20:25:49.244Z,11.72
2024-04-03T20:28:17.985Z,11.67
2024-04-03T20:30:46.431Z,11.59
2024-04-03T20:33:14.579Z,11.54
2024-04-03T20:35:47.431Z,11.50
2024-04-03T20:38:15.904Z,11.45
2024-04-03T20:40:44.793Z,11.40
2024-04-03T20:43:12.766Z,11.39
2024-04-03T20:45:41.649Z,11.38
2024-04-03T20:48:10.304Z,11.41
2024-04-03T20:50:40.246Z,11.43
2024-04-03T20:53:08.480Z,11.40
2024-04-03T20:55:36.504Z,11.34
2024-04-03T20:58:05.164Z,11.29
2024-04-03T21:00:33.374Z,11.26
2024-04-03T21:03:01.531Z,11.23
2024-04-03T21:05:30.629Z,11.23
2024-04-03T21:07:59.001Z,11.23
2024-04-03T21:10:27.111Z,11.23
2024-04-03T21:12:55.271Z,11.21
2024-04-03T21:15:23.508Z,11.19
2024-04-03T21:17:51.583Z,11.15
2024-04-03T21:20:19.667Z,11.12
2024-04-03T21:22:47.591Z,11.09
2024-04-03T21:25:15.564Z,11.06
2024-04-03T21:27:43.918Z,11.06
2024-04-03T21:30:15.180Z,11.01
2024-04-03T21:32:43.485Z,10.99
2024-04-03T21:35:12.042Z,10.92
2024-04-03T21:37:40.035Z,10.86
2024-04-03T21:40:09.075Z,10.83
2024-04-03T21:42:37.230Z,10.80
2024-04-03T21:45:05.925Z,10.75
2024-04-03T21:47:34.603Z,10.71
2024-04-03T21:50:02.906Z,10.64
2024-04-03T21:52:32.067Z,10.62
2024-04-03T21:55:00.446Z,10.60
2024-04-03T21:57:28.733Z,10.58
2024-04-03T21:59:56.937Z,10.59
2024-04-03T22:02:25.576Z,10.59
2024-04-03T22:04:53.710Z,10.57
2024-04-03T22:07:21.909Z,10.55
2024-04-03T22:09:50.133Z,10.52
2024-04-03T22:12:18.369Z,10.48
2024-04-03T22:14:46.442Z,10.46
2024-04-03T22:17:14.582Z,10.47
2024-04-03T22:19:42.808Z,10.47
2024-04-03T22:22:11.270Z,10.45
2024-04-03T22:24:39.221Z,10.42
2024-04-03T22:27:07.142Z,10.38
2024-04-03T22:29:35.130Z,10.35
2024-04-03T22:32:03.277Z,10.34
2024-04-03T22:34:31.358Z,10.32
2024-04-03T22:36:59.294Z,10.30
2024-04-03T22:39:27.508Z,10.26
2024-04-03T22:41:55.455Z,10.26
2024-04-03T22:44:24.078Z,10.27
2024-04-03T22:46:52.222Z,10.28
2024-04-03T22:49:22.070Z,10.27
2024-04-03T22:51:50.329Z,10.28
2024-04-03T22:54:18.810Z,10.26
2024-04-03T22:56:47.038Z,10.24
2024-04-03T22:59:15.279Z,10.24
2024-04-03T23:01:43.243Z,10.24
2024-04-03T23:04:11.186Z,10.25
2024-04-03T23:06:39.130Z,10.27
2024-04-03T23:09:07.280Z,10.27
2024-04-03T23:11:35.791Z,10.25
2024-04-03T23:14:03.950Z,10.24
2024-04-03T23:16:32.272Z,10.23
2024-04-03T23:19:00.530Z,10.21
2024-04-03T23:21:28.899Z,10.24
2024-04-03T23:23:57.071Z,10.22
2024-04-03T23:26:25.416Z,10.22
2024-04-03T23:28:54.948Z,10.23
2024-04-03T23:31:23.370Z,10.25
2024-04-03T23:33:51.786Z,10.22
2024-04-03T23:36:19.947Z,10.21
2024-04-03T23:38:48.117Z,10.18
2024-04-03T23:41:16.285Z,10.16
2024-04-03T23:43:44.763Z,10.14
2024-04-03T23:46:12.717Z,10.13
2024-04-03T23:48:40.911Z,10.12
2024-04-03T23:51:09.017Z,10.12
2024-04-03T23:53:37.484Z,10.14
2024-04-03T23:56:08.284Z,10.12
2024-04-03T23:58:36.671Z,10.07
